Time;durP1;ratioP1;P1;durP2;ratioP2;P2;SDS_P1;SDS_P2;PMS_P1;PMS_P2;Temp;Humidity;BMP_temperature;BMP_pressure;BME280_temperature;BME280_humidity;BME280_pressure;Samples;Min_cycle;Max_cycle;Signal;HPM_P1;HPM_P2
2024/01/07 00:02:10;;;;;;;11.77;8.50;;;0.00;99.90;;;;;;5072187;28;20682;-76
2024/01/07 00:04:36;;;;;;;10.80;8.20;;;0.10;99.90;;;;;;5072609;28;20044;-76
2024/01/07 00:07:03;;;;;;;12.13;8.23;;;0.00;99.90;;;;;;5071058;28;20178;-76
2024/01/07 00:09:29;;;;;;;10.93;8.00;;;0.00;99.90;;;;;;5071238;28;20045;-76
2024/01/07 00:11:55;;;;;;;12.93;8.55;;;0.00;99.90;;;;;;5072440;28;20047;-76
2024/01/07 00:14:20;;;;;;;11.57;8.52;;;0.80;99.90;;;;;;5071437;28;20479;-76
2024/01/07 00:16:46;;;;;;;10.55;8.25;;;0.40;99.90;;;;;;5072186;28;20402;-76
2024/01/07 00:19:12;;;;;;;13.73;8.10;;;0.40;99.90;;;;;;5072063;28;20067;-76
2024/01/07 00:21:37;;;;;;;11.05;8.15;;;-0.10;99.90;;;;;;5072353;28;20125;-76
2024/01/07 00:24:03;;;;;;;10.27;7.40;;;-0.10;99.90;;;;;;5070657;28;20442;-76
2024/01/07 00:26:29;;;;;;;10.93;8.43;;;-0.10;99.90;;;;;;5072314;28;20049;-75
2024/01/07 00:28:54;;;;;;;10.38;8.10;;;-0.20;99.90;;;;;;5070926;28;20044;-76
2024/01/07 00:31:20;;;;;;;10.25;7.38;;;-0.20;99.90;;;;;;5054393;28;20087;-76
2024/01/07 00:33:46;;;;;;;12.25;8.10;;;-0.10;99.90;;;;;;5071030;28;20100;-76
2024/01/07 00:36:11;;;;;;;11.38;8.73;;;-0.20;99.90;;;;;;5053907;28;20044;-76
2024/01/07 00:38:37;;;;;;;13.32;8.07;;;-0.20;99.90;;;;;;5054528;28;20508;-76
2024/01/07 00:41:03;;;;;;;10.43;7.82;;;-0.20;99.90;;;;;;5071579;28;20072;-76
2024/01/07 00:43:29;;;;;;;11.70;7.75;;;-0.20;99.90;;;;;;5071093;28;20052;-76
2024/01/07 00:45:54;;;;;;;13.40;8.32;;;-0.20;99.90;;;;;;5054295;28;20060;-76
2024/01/07 00:48:20;;;;;;;10.35;7.57;;;-0.20;99.90;;;;;;5071683;28;20044;-77
2024/01/07 00:50:46;;;;;;;10.65;7.78;;;0.00;99.90;;;;;;5070840;28;20052;-76
2024/01/07 00:53:11;;;;;;;10.15;7.78;;;-0.10;99.90;;;;;;5070725;28;20138;-77
2024/01/07 00:55:37;;;;;;;10.55;7.90;;;-0.10;99.90;;;;;;5054261;28;20088;-76
2024/01/07 00:58:03;;;;;;;10.80;7.75;;;0.00;99.90;;;;;;5072227;28;20053;-76
2024/01/07 01:00:29;;;;;;;10.55;7.63;;;-0.10;99.90;;;;;;5075893;28;20143;-76
2024/01/07 01:02:55;;;;;;;10.00;7.88;;;0.90;99.90;;;;;;5075029;28;20248;-76
2024/01/07 01:05:21;;;;;;;10.30;7.80;;;-0.10;99.90;;;;;;5074433;28;20135;-76
2024/01/07 01:07:46;;;;;;;12.40;8.18;;;-0.10;99.90;;;;;;5074329;28;20454;-76
2024/01/07 01:10:16;;;;;;;14.80;8.45;;;0.00;99.90;;;;;;5075375;28;20049;-76
2024/01/07 01:12:42;;;;;;;12.65;8.65;;;0.00;99.90;;;;;;5075998;28;20080;-76
2024/01/07 01:15:08;;;;;;;10.43;7.78;;;0.40;99.90;;;;;;5074221;28;20054;-76
2024/01/07 01:17:34;;;;;;;9.50;7.20;;;0.00;99.90;;;;;;5075565;28;20098;-76
2024/01/07 01:20:00;;;;;;;10.70;7.75;;;0.00;99.90;;;;;;5074439;28;20476;-76
2024/01/07 01:22:25;;;;;;;10.13;6.90;;;0.00;99.90;;;;;;5057613;28;20051;-77
2024/01/07 01:24:52;;;;;;;11.55;7.95;;;0.00;99.90;;;;;;5074382;28;20098;-76
2024/01/07 01:27:18;;;;;;;11.43;7.70;;;0.00;99.90;;;;;;5074158;28;20059;-76
2024/01/07 01:29:44;;;;;;;9.30;7.53;;;-0.10;99.90;;;;;;5057065;28;20048;-76
2024/01/07 01:32:10;;;;;;;10.65;7.70;;;0.00;99.90;;;;;;5074991;28;20045;-76
2024/01/07 01:34:36;;;;;;;11.75;7.28;;;0.30;99.90;;;;;;5074054;28;20056;-76
2024/01/07 01:37:02;;;;;;;10.30;7.50;;;-0.10;99.90;;;;;;5075089;28;20044;-77
2024/01/07 01:39:29;;;;;;;8.50;6.97;;;-0.10;99.90;;;;;;5074869;28;20045;-76
2024/01/07 01:41:55;;;;;;;10.02;7.57;;;-0.10;99.90;;;;;;5074238;28;20048;-76
2024/01/07 01:44:21;;;;;;;10.98;7.70;;;0.80;99.90;;;;;;5073617;28;20159;-76
2024/01/07 01:46:47;;;;;;;10.98;7.82;;;-0.10;99.90;;;;;;5074039;28;20488;-75
2024/01/07 01:49:13;;;;;;;10.10;6.95;;;-0.10;99.90;;;;;;5073394;28;20045;-75
2024/01/07 01:51:39;;;;;;;9.18;7.10;;;-0.10;99.90;;;;;;5074970;28;20131;-75
2024/01/07 01:54:06;;;;;;;10.07;6.88;;;-0.20;99.90;;;;;;5073895;28;20066;-75
2024/01/07 01:56:33;;;;;;;10.32;7.15;;;-0.10;99.90;;;;;;5073041;28;20053;-75
2024/01/07 01:58:59;;;;;;;10.38;6.93;;;-0.10;99.90;;;;;;5074003;28;20118;-75
2024/01/07 02:01:25;;;;;;;9.32;6.57;;;0.00;99.90;;;;;;5074557;28;20109;-76
2024/01/07 02:03:54;;;;;;;11.80;7.60;;;-0.20;99.90;;;;;;5073560;28;20049;-76
2024/01/07 02:06:21;;;;;;;9.27;6.78;;;-0.20;99.90;;;;;;5056854;28;20183;-76
2024/01/07 02:08:48;;;;;;;8.63;6.82;;;0.70;99.90;;;;;;5073542;28;20047;-75
2024/01/07 02:11:22;;;;;;;8.10;5.88;;;-0.20;99.90;;;;;;5074206;28;20052;-76
2024/01/07 02:13:48;;;;;;;9.88;6.05;;;-0.20;99.90;;;;;;5073405;28;20036;-76
2024/01/07 02:16:14;;;;;;;9.60;6.15;;;0.20;99.90;;;;;;5074247;28;20141;-76
2024/01/07 02:18:42;;;;;;;9.60;6.90;;;-0.10;99.90;;;;;;5074738;28;20129;-75
2024/01/07 02:21:09;;;;;;;9.48;6.40;;;0.10;99.90;;;;;;5056936;28;20064;-76
2024/01/07 02:23:35;;;;;;;8.02;6.05;;;-0.20;99.90;;;;;;5074145;28;20052;-76
2024/01/07 02:26:01;;;;;;;10.23;6.10;;;-0.20;99.90;;;;;;5073541;28;20060;-76
2024/01/07 02:28:27;;;;;;;9.02;6.22;;;-0.20;99.90;;;;;;5073636;28;20123;-77
2024/01/07 02:30:52;;;;;;;8.40;5.82;;;-0.20;99.90;;;;;;5074372;28;20040;-75
2024/01/07 02:33:18;;;;;;;7.70;5.85;;;0.40;99.90;;;;;;5073762;28;20098;-76
2024/01/07 02:35:44;;;;;;;7.90;5.60;;;-0.10;99.90;;;;;;5073303;28;20084;-75
2024/01/07 02:38:09;;;;;;;8.77;6.25;;;-0.10;99.90;;;;;;5073101;28;20127;-75
2024/01/07 02:40:35;;;;;;;8.10;5.63;;;-0.10;99.90;;;;;;5073733;28;20381;-76
2024/01/07 02:43:01;;;;;;;8.32;5.40;;;-0.10;99.90;;;;;;5074176;28;20044;-75
2024/01/07 02:45:26;;;;;;;9.07;5.35;;;-0.10;99.90;;;;;;5073472;28;20147;-76
2024/01/07 02:47:52;;;;;;;7.68;5.55;;;-0.20;99.90;;;;;;5073898;28;20041;-76
2024/01/07 02:50:18;;;;;;;9.75;5.50;;;0.80;99.90;;;;;;5073622;28;20103;-75
2024/01/07 02:52:43;;;;;;;7.55;5.88;;;-0.10;99.90;;;;;;5073825;28;20491;-75
2024/01/07 02:55:09;;;;;;;8.90;5.70;;;-0.10;99.90;;;;;;5073882;28;20084;-75
2024/01/07 02:57:35;;;;;;;8.00;5.53;;;-0.10;99.90;;;;;;5072873;28;20059;-75
2024/01/07 03:00:02;;;;;;;7.82;5.60;;;-0.10;99.90;;;;;;5072686;28;20128;-75
2024/01/07 03:02:28;;;;;;;9.15;5.85;;;-0.10;99.90;;;;;;5072204;28;20052;-76
2024/01/07 03:04:53;;;;;;;7.45;4.75;;;-0.10;99.90;;;;;;5072488;28;20048;-76
2024/01/07 03:07:19;;;;;;;7.05;4.88;;;-0.10;99.90;;;;;;5073075;28;20048;-75
2024/01/07 03:09:45;;;;;;;6.63;4.93;;;-0.10;99.90;;;;;;5073419;28;20109;-75
2024/01/07 03:12:10;;;;;;;6.00;4.80;;;-0.10;99.90;;;;;;5072470;28;20136;-75
2024/01/07 03:14:36;;;;;;;6.72;4.80;;;-0.10;99.90;;;;;;5071647;28;20094;-75
2024/01/07 03:17:02;;;;;;;8.75;4.97;;;-0.10;99.90;;;;;;5073277;28;20495;-75
2024/01/07 03:19:27;;;;;;;7.07;4.10;;;-0.10;99.90;;;;;;5073090;28;20051;-75
2024/01/07 03:21:53;;;;;;;7.63;4.57;;;-0.10;99.90;;;;;;5071762;28;20462;-75
2024/01/07 03:24:19;;;;;;;6.35;3.92;;;0.40;99.90;;;;;;5071948;28;20125;-75
2024/01/07 03:26:44;;;;;;;8.05;4.50;;;-0.10;99.90;;;;;;5072783;28;20048;-76
2024/01/07 03:29:10;;;;;;;6.65;4.50;;;-0.10;99.90;;;;;;5071853;28;20098;-76
2024/01/07 03:31:36;;;;;;;7.18;4.55;;;-0.10;99.90;;;;;;5071619;28;20052;-75
2024/01/07 03:34:01;;;;;;;5.55;4.18;;;-0.10;99.90;;;;;;5073361;28;20044;-75
2024/01/07 03:36:27;;;;;;;6.80;4.50;;;-0.10;99.90;;;;;;5054807;28;20048;-75
2024/01/07 03:38:54;;;;;;;6.13;4.05;;;0.10;99.90;;;;;;5072778;28;20119;-76
2024/01/07 03:41:20;;;;;;;7.13;4.03;;;-0.10;99.90;;;;;;5071377;28;20110;-75
2024/01/07 03:43:47;;;;;;;8.45;4.30;;;-0.10;99.90;;;;;;5072434;28;20399;-75
2024/01/07 03:46:13;;;;;;;6.32;4.55;;;-0.10;99.90;;;;;;5072770;28;20407;-75
2024/01/07 03:48:40;;;;;;;9.15;4.75;;;-0.10;99.90;;;;;;5072203;28;20049;-75
2024/01/07 03:51:05;;;;;;;6.13;3.97;;;0.00;99.90;;;;;;5072778;28;20047;-76
2024/01/07 03:53:31;;;;;;;6.65;4.55;;;-0.10;99.90;;;;;;5071063;28;20399;-75
2024/01/07 03:55:57;;;;;;;6.75;4.20;;;-0.10;99.90;;;;;;5072784;28;20145;-76
2024/01/07 03:58:22;;;;;;;6.53;4.00;;;-0.10;99.90;;;;;;5072164;28;20102;-76
2024/01/07 04:00:48;;;;;;;6.95;4.13;;;-0.10;99.90;;;;;;5071280;28;20056;-75
2024/01/07 04:03:14;;;;;;;8.13;4.63;;;0.00;99.90;;;;;;5072156;28;20487;-75
2024/01/07 04:05:39;;;;;;;6.07;4.22;;;-0.10;99.90;;;;;;5072242;28;20052;-75
2024/01/07 04:08:05;;;;;;;5.00;3.85;;;-0.10;99.90;;;;;;5071377;28;20052;-75
2024/01/07 04:10:31;;;;;;;5.25;3.33;;;-0.10;99.90;;;;;;5072050;28;20044;-75
2024/01/07 04:12:57;;;;;;;6.80;3.60;;;-0.10;99.90;;;;;;5071626;28;20059;-77
2024/01/07 04:15:23;;;;;;;6.68;3.50;;;0.10;99.90;;;;;;5072633;28;20123;-77
2024/01/07 04:17:48;;;;;;;5.72;3.60;;;-0.10;99.90;;;;;;5072053;28;20070;-76
2024/01/07 04:20:14;;;;;;;6.95;3.78;;;-0.10;99.90;;;;;;5072624;28;20172;-76
2024/01/07 04:22:40;;;;;;;5.95;3.67;;;-0.10;99.90;;;;;;5071012;28;20044;-76
2024/01/07 04:25:08;;;;;;;5.82;3.40;;;-0.10;99.90;;;;;;5071363;28;20040;-76
2024/01/07 04:27:39;;;;;;;6.25;3.13;;;-0.10;99.90;;;;;;5070910;28;20059;-75
2024/01/07 04:30:06;;;;;;;5.35;3.65;;;-0.10;99.90;;;;;;5070427;28;20551;-75
2024/01/07 04:32:32;;;;;;;6.90;3.70;;;-0.10;99.90;;;;;;5071051;28;20071;-75
2024/01/07 04:34:58;;;;;;;6.18;3.22;;;-0.10;99.90;;;;;;5071048;28;20157;-77
2024/01/07 04:37:24;;;;;;;7.82;3.40;;;-0.10;99.90;;;;;;5071079;28;20041;-76
2024/01/07 04:39:50;;;;;;;5.13;3.08;;;-0.10;99.90;;;;;;5071631;28;20057;-76
2024/01/07 04:42:19;;;;;;;8.50;3.15;;;-0.20;99.90;;;;;;5070633;28;20097;-76
2024/01/07 04:44:44;;;;;;;4.97;3.20;;;-0.10;99.90;;;;;;5071718;28;20106;-76
2024/01/07 04:47:28;;;;;;;5.43;3.15;;;-0.10;99.90;;;;;;5054405;28;20048;-76
2024/01/07 04:49:54;;;;;;;5.45;2.83;;;-0.10;99.90;;;;;;5070435;28;20471;-75
2024/01/07 04:52:24;;;;;;;4.82;2.70;;;-0.20;99.90;;;;;;5054158;28;20074;-76
2024/01/07 04:54:54;;;;;;;4.10;2.60;;;-0.10;99.90;;;;;;5071588;28;20041;-75
2024/01/07 04:57:22;;;;;;;5.55;2.90;;;-0.10;99.90;;;;;;5070133;28;20049;-75
2024/01/07 04:59:49;;;;;;;5.25;3.03;;;0.10;99.90;;;;;;5069939;28;20065;-76
2024/01/07 05:02:14;;;;;;;4.68;2.35;;;0.80;99.90;;;;;;5071693;28;20439;-76
2024/01/07 05:04:41;;;;;;;4.70;2.75;;;0.10;99.90;;;;;;5071480;28;20048;-75
2024/01/07 05:07:06;;;;;;;5.07;2.70;;;0.10;99.90;;;;;;5071824;28;20401;-76
2024/01/07 05:09:32;;;;;;;4.53;2.78;;;-0.10;99.90;;;;;;5070561;28;20040;-76
2024/01/07 05:11:58;;;;;;;6.80;2.83;;;-0.10;99.90;;;;;;5071112;28;20053;-75
2024/01/07 05:14:24;;;;;;;5.45;2.75;;;0.00;99.90;;;;;;5071395;28;20044;-76
2024/01/07 05:16:50;;;;;;;6.30;2.67;;;-0.10;99.90;;;;;;5070004;28;20045;-75
2024/01/07 05:19:16;;;;;;;4.93;2.47;;;-0.10;99.90;;;;;;5071536;28;20047;-76
2024/01/07 05:21:41;;;;;;;5.40;2.70;;;0.00;99.90;;;;;;5071072;28;20387;-75
2024/01/07 05:24:07;;;;;;;4.82;2.70;;;-0.10;99.90;;;;;;5070539;28;20460;-75
2024/01/07 05:26:40;;;;;;;5.13;2.45;;;-0.10;99.90;;;;;;5071810;28;20051;-75
2024/01/07 05:29:06;;;;;;;5.60;2.40;;;-0.10;99.90;;;;;;5053660;28;20050;-75
2024/01/07 05:31:32;;;;;;;5.72;2.67;;;0.10;99.90;;;;;;5037190;28;20044;-75
2024/01/07 05:33:58;;;;;;;5.40;2.72;;;0.30;99.90;;;;;;5070122;28;20079;-77
2024/01/07 05:36:23;;;;;;;7.25;2.58;;;0.00;99.90;;;;;;5071700;28;20452;-76
2024/01/07 05:38:49;;;;;;;3.90;2.40;;;0.00;99.90;;;;;;5069781;28;20044;-75
2024/01/07 05:41:15;;;;;;;4.65;2.55;;;-0.10;99.90;;;;;;5070406;28;20080;-75
2024/01/07 05:43:40;;;;;;;4.88;2.60;;;-0.10;99.90;;;;;;5070949;28;20052;-75
2024/01/07 05:46:06;;;;;;;6.85;2.63;;;0.00;99.90;;;;;;5057433;28;20047;-76
2024/01/07 05:48:45;;;;;;;4.75;2.15;;;0.50;99.90;;;;;;5073757;28;20393;-75
2024/01/07 05:51:12;;;;;;;4.43;2.50;;;0.00;99.90;;;;;;5075055;28;20075;-75
2024/01/07 05:53:38;;;;;;;6.63;2.95;;;0.80;99.90;;;;;;5073806;28;20052;-75
2024/01/07 05:56:04;;;;;;;5.50;2.47;;;0.00;99.90;;;;;;5074632;28;20113;-77
2024/01/07 05:58:30;;;;;;;4.53;2.25;;;-0.10;99.90;;;;;;5073344;28;20056;-75
2024/01/07 06:00:55;;;;;;;7.72;2.53;;;0.00;99.90;;;;;;5073133;28;20079;-75
2024/01/07 06:03:21;;;;;;;4.22;2.33;;;0.00;99.90;;;;;;5073338;28;20131;-77
2024/01/07 06:05:47;;;;;;;6.55;2.67;;;0.00;99.90;;;;;;5073251;28;20383;-75
2024/01/07 06:08:13;;;;;;;5.28;2.55;;;0.00;99.90;;;;;;5074749;28;20049;-78
2024/01/07 06:10:39;;;;;;;5.45;2.30;;;0.00;99.90;;;;;;5074665;28;20399;-76
2024/01/07 06:13:05;;;;;;;4.35;2.50;;;-0.10;99.90;;;;;;5073971;28;20084;-75
2024/01/07 06:15:31;;;;;;;7.57;2.70;;;-0.10;99.90;;;;;;5074580;28;20495;-75
2024/01/07 06:17:57;;;;;;;5.90;2.47;;;1.50;99.90;;;;;;5073125;28;20049;-76
2024/01/07 06:20:23;;;;;;;7.05;2.30;;;0.00;99.90;;;;;;5074482;28;20487;-78
2024/01/07 06:22:49;;;;;;;5.20;2.60;;;0.00;99.90;;;;;;5073831;28;20048;-75
2024/01/07 06:25:15;;;;;;;8.10;2.50;;;0.00;99.90;;;;;;5074307;28;20044;-75
2024/01/07 06:27:41;;;;;;;4.63;2.30;;;0.00;99.90;;;;;;5039896;28;20044;-76
2024/01/07 06:30:07;;;;;;;4.50;2.30;;;0.00;99.90;;;;;;5073811;28;20076;-75
2024/01/07 06:32:33;;;;;;;7.68;2.35;;;0.00;99.90;;;;;;5074149;28;20079;-75
2024/01/07 06:34:59;;;;;;;5.70;2.35;;;0.00;99.90;;;;;;5073577;28;20484;-75
2024/01/07 06:37:25;;;;;;;7.57;2.70;;;0.00;99.90;;;;;;5073015;28;20087;-76
2024/01/07 06:39:51;;;;;;;4.75;2.13;;;0.00;99.90;;;;;;5073688;28;20041;-76
2024/01/07 06:42:17;;;;;;;4.70;2.40;;;0.00;99.90;;;;;;5072938;28;20040;-75
2024/01/07 06:44:43;;;;;;;4.25;2.20;;;0.00;99.90;;;;;;5073867;28;20123;-76
2024/01/07 06:47:08;;;;;;;6.93;2.42;;;0.00;99.90;;;;;;5073411;28;20222;-75
2024/01/07 06:49:34;;;;;;;5.28;2.17;;;0.00;99.90;;;;;;5072474;28;20051;-76
2024/01/07 06:52:00;;;;;;;5.78;2.20;;;0.60;99.90;;;;;;5073014;28;20051;-75
2024/01/07 06:54:25;;;;;;;3.45;2.00;;;0.00;99.90;;;;;;5072295;28;20055;-75
2024/01/07 06:56:51;;;;;;;4.70;2.20;;;0.00;99.90;;;;;;5072673;28;20044;-77
2024/01/07 06:59:17;;;;;;;5.68;2.30;;;0.00;99.90;;;;;;5073212;28;20060;-77
2024/01/07 07:01:42;;;;;;;3.92;1.90;;;0.50;99.90;;;;;;5073462;28;20515;-76
2024/01/07 07:04:08;;;;;;;3.33;2.08;;;-0.10;99.90;;;;;;5073086;28;20432;-76
2024/01/07 07:06:36;;;;;;;2.60;1.70;;;-0.10;99.90;;;;;;5072280;28;20055;-76
2024/01/07 07:09:02;;;;;;;3.42;1.85;;;-0.10;99.90;;;;;;5072808;28;20036;-76
2024/01/07 07:11:28;;;;;;;4.93;1.67;;;-0.10;99.90;;;;;;5073388;28;20048;-76
2024/01/07 07:13:54;;;;;;;4.20;1.85;;;-0.10;99.90;;;;;;5072823;28;20471;-75
2024/01/07 07:16:19;;;;;;;4.05;1.90;;;-0.10;99.90;;;;;;5073157;28;20095;-76
2024/01/07 07:18:45;;;;;;;5.32;1.85;;;-0.20;99.90;;;;;;5055682;28;20053;-76
2024/01/07 07:21:11;;;;;;;3.13;1.92;;;-0.20;99.90;;;;;;5072801;28;20045;-76
2024/01/07 07:23:36;;;;;;;4.57;1.90;;;-0.20;99.90;;;;;;5072196;28;20087;-76
2024/01/07 07:26:02;;;;;;;3.05;1.80;;;-0.10;99.90;;;;;;5071684;28;20450;-77
2024/01/07 07:28:28;;;;;;;4.80;2.15;;;-0.30;99.90;;;;;;5071593;28;20090;-76
2024/01/07 07:30:53;;;;;;;3.50;1.85;;;0.00;99.90;;;;;;5055545;28;20074;-77
2024/01/07 07:33:19;;;;;;;3.13;1.80;;;-0.30;99.90;;;;;;5071628;28;20052;-77
2024/01/07 07:35:46;;;;;;;2.47;1.65;;;0.60;99.90;;;;;;5073160;28;20044;-77
2024/01/07 07:38:11;;;;;;;4.07;2.03;;;-0.40;99.90;;;;;;5071403;28;20052;-76
2024/01/07 07:40:37;;;;;;;3.50;1.90;;;0.30;99.90;;;;;;5071934;28;20059;-77
2024/01/07 07:43:03;;;;;;;3.40;1.95;;;-0.40;99.90;;;;;;5071349;28;20083;-76
2024/01/07 07:45:28;;;;;;;4.40;2.10;;;-0.40;99.90;;;;;;5071834;28;20052;-76
2024/01/07 07:47:54;;;;;;;3.58;2.10;;;-0.30;99.90;;;;;;5072791;28;20055;-78
2024/01/07 07:50:21;;;;;;;4.15;2.20;;;0.50;99.90;;;;;;5070883;28;20098;-77
2024/01/07 07:52:47;;;;;;;4.10;2.53;;;-0.70;99.90;;;;;;5071440;28;20083;-76
2024/01/07 07:55:13;;;;;;;3.72;2.20;;;-0.40;99.90;;;;;;5072411;28;20090;-76
2024/01/07 07:57:38;;;;;;;5.35;2.40;;;-0.70;99.90;;;;;;5071464;28;20110;-77
2024/01/07 08:00:06;;;;;;;4.38;2.33;;;-0.10;99.90;;;;;;5087500;28;20048;-76
2024/01/07 08:02:32;;;;;;;4.43;2.78;;;-0.40;99.90;;;;;;5071699;28;20076;-76
2024/01/07 08:04:58;;;;;;;6.97;2.90;;;-0.70;99.90;;;;;;5072614;28;20312;-76
2024/01/07 08:07:23;;;;;;;5.32;2.50;;;0.00;99.90;;;;;;5054478;28;20048;-76
2024/01/07 08:09:49;;;;;;;5.03;2.50;;;-0.30;99.90;;;;;;5054455;28;20048;-76
2024/01/07 08:12:15;;;;;;;5.00;2.70;;;0.10;99.90;;;;;;5070843;28;20048;-77
2024/01/07 08:14:41;;;;;;;3.90;2.15;;;-0.50;99.90;;;;;;5054400;28;20060;-76
2024/01/07 08:17:07;;;;;;;5.70;2.22;;;-0.60;99.90;;;;;;5054179;28;20131;-76
2024/01/07 08:19:33;;;;;;;3.75;2.25;;;-0.40;99.90;;;;;;5072228;28;20036;-76
2024/01/07 08:21:59;;;;;;;3.80;2.22;;;0.70;99.90;;;;;;5071187;28;20054;-77
2024/01/07 08:24:24;;;;;;;3.13;2.20;;;-0.20;99.90;;;;;;5071918;28;20132;-76
2024/01/07 08:26:50;;;;;;;3.22;2.30;;;-0.20;99.90;;;;;;5071215;28;20048;-77
2024/01/07 08:29:17;;;;;;;6.35;2.47;;;-0.40;99.90;;;;;;5071819;28;20088;-76
2024/01/07 08:31:43;;;;;;;4.15;2.22;;;-0.30;99.90;;;;;;5071856;28;20087;-76
2024/01/07 08:34:08;;;;;;;3.70;2.30;;;1.00;99.90;;;;;;5053942;28;20056;-76
2024/01/07 08:36:34;;;;;;;4.68;2.30;;;-0.20;99.90;;;;;;5054549;28;20094;-76
2024/01/07 08:39:00;;;;;;;5.82;2.35;;;1.10;99.90;;;;;;5070979;28;20055;-77
2024/01/07 08:41:26;;;;;;;5.65;2.70;;;0.10;99.90;;;;;;5053846;28;20396;-76
2024/01/07 08:43:52;;;;;;;6.00;2.22;;;-0.20;99.90;;;;;;5071075;28;20444;-76
2024/01/07 08:46:21;;;;;;;3.22;2.03;;;0.10;99.90;;;;;;5070444;28;20048;-78
2024/01/07 08:48:47;;;;;;;5.18;2.30;;;-0.20;99.90;;;;;;5071847;28;20152;-76
2024/01/07 08:51:13;;;;;;;3.88;2.20;;;0.30;99.90;;;;;;5054015;28;20440;-76
2024/01/07 08:53:39;;;;;;;4.13;2.40;;;0.10;99.90;;;;;;5071958;28;20052;-76
2024/01/07 08:56:06;;;;;;;3.85;2.08;;;0.00;99.90;;;;;;5070937;28;20052;-74
2024/01/07 08:58:32;;;;;;;5.95;2.20;;;0.10;99.90;;;;;;5053274;28;20060;-74
2024/01/07 09:00:58;;;;;;;5.80;2.50;;;0.50;99.90;;;;;;5070697;28;20048;-75
2024/01/07 09:03:24;;;;;;;4.22;2.10;;;0.70;99.90;;;;;;5071493;28;20377;-77
2024/01/07 09:05:50;;;;;;;3.60;2.55;;;1.00;99.90;;;;;;5071056;28;20048;-78
2024/01/07 09:08:15;;;;;;;4.63;2.47;;;-0.20;99.90;;;;;;5071356;28;20072;-79
2024/01/07 09:10:41;;;;;;;4.10;2.17;;;1.40;99.90;;;;;;5053943;28;20067;-79
2024/01/07 09:13:07;;;;;;;6.20;2.20;;;0.20;99.90;;;;;;5071784;28;20130;-76
2024/01/07 09:15:33;;;;;;;4.82;2.22;;;-0.10;99.90;;;;;;5053534;28;20098;-77
2024/01/07 09:18:01;;;;;;;4.47;2.30;;;1.30;99.90;;;;;;5071060;28;20048;-76
2024/01/07 09:20:27;;;;;;;6.68;2.67;;;0.20;99.90;;;;;;5074985;28;20080;-77
2024/01/07 09:22:53;;;;;;;5.43;3.00;;;0.20;99.90;;;;;;5075212;28;20508;-77
2024/01/07 09:25:19;;;;;;;3.38;2.45;;;0.20;99.90;;;;;;5074655;28;20062;-77
2024/01/07 09:27:44;;;;;;;4.70;2.78;;;0.20;99.90;;;;;;5075636;28;20093;-79
2024/01/07 09:30:11;;;;;;;7.97;3.10;;;0.80;99.90;;;;;;5057286;28;20076;-78
2024/01/07 09:32:37;;;;;;;4.65;2.75;;;0.20;99.90;;;;;;5074065;28;20098;-77
2024/01/07 09:35:05;;;;;;;4.50;2.70;;;0.20;99.90;;;;;;5040917;28;20437;-77
2024/01/07 09:37:31;;;;;;;4.43;2.72;;;0.20;99.90;;;;;;5074696;28;20044;-77
2024/01/07 09:39:57;;;;;;;6.07;2.58;;;0.00;99.90;;;;;;5075122;28;20426;-76
2024/01/07 09:42:23;;;;;;;5.35;2.80;;;0.20;99.90;;;;;;5073417;28;20114;-78
2024/01/07 09:44:50;;;;;;;6.90;3.25;;;0.40;99.90;;;;;;5074753;28;20135;-77
2024/01/07 09:47:16;;;;;;;7.10;3.03;;;1.30;99.90;;;;;;5073673;28;20158;-77
2024/01/07 09:49:43;;;;;;;5.47;3.25;;;0.10;99.90;;;;;;5074906;28;20430;-77
2024/01/07 09:52:10;;;;;;;6.90;2.80;;;0.30;99.90;;;;;;5074989;28;20484;-77
2024/01/07 09:54:40;;;;;;;4.65;2.70;;;0.30;99.90;;;;;;5073517;28;20053;-77
2024/01/07 09:57:07;;;;;;;5.07;2.75;;;0.60;99.90;;;;;;5073201;28;20391;-77
2024/01/07 09:59:34;;;;;;;6.15;2.65;;;0.40;99.90;;;;;;5071519;28;20067;-78
2024/01/07 10:02:00;;;;;;;4.07;2.50;;;0.40;99.90;;;;;;5072566;28;20052;-78
2024/01/07 10:04:33;;;;;;;7.43;3.58;;;0.30;99.90;;;;;;5072234;28;20048;-79
2024/01/07 10:06:58;;;;;;;3.83;2.40;;;0.20;99.90;;;;;;5056001;28;20052;-79
2024/01/07 10:09:28;;;;;;;6.68;2.67;;;0.40;99.90;;;;;;5053942;28;20136;-78
2024/01/07 10:11:54;;;;;;;6.50;2.78;;;0.60;99.90;;;;;;5073889;28;20045;-78
2024/01/07 10:14:22;;;;;;;4.88;2.70;;;1.50;99.90;;;;;;5073229;28;20071;-78
2024/01/07 10:16:50;;;;;;;6.25;3.13;;;0.30;99.90;;;;;;5072165;28;20059;-77
2024/01/07 10:19:22;;;;;;;4.25;2.35;;;0.30;99.90;;;;;;5072510;28;20456;-77
2024/01/07 10:22:02;;;;;;;6.10;2.75;;;1.50;99.90;;;;;;5073163;28;20052;-77
2024/01/07 10:24:39;;;;;;;3.65;2.40;;;0.60;99.90;;;;;;5071831;28;20054;-77
2024/01/07 10:27:05;;;;;;;4.53;2.60;;;0.50;99.90;;;;;;5072205;28;20084;-77
2024/01/07 10:29:32;;;;;;;4.00;2.58;;;0.40;99.90;;;;;;5071026;28;20071;-75
2024/01/07 10:31:58;;;;;;;6.32;3.00;;;0.70;99.90;;;;;;5072701;28;20052;-76
2024/01/07 10:34:25;;;;;;;6.03;2.88;;;0.50;99.90;;;;;;5054803;28;20072;-77
2024/01/07 10:36:56;;;;;;;4.25;2.78;;;0.10;99.90;;;;;;5073684;28;20506;-78
2024/01/07 10:39:22;;;;;;;4.40;2.55;;;0.90;99.90;;;;;;5056249;28;20048;-75
2024/01/07 10:41:49;;;;;;;3.90;2.53;;;0.30;99.90;;;;;;5072749;28;20044;-76
2024/01/07 10:44:15;;;;;;;5.35;3.10;;;0.10;99.90;;;;;;5073221;28;20049;-76
2024/01/07 10:46:43;;;;;;;5.03;2.58;;;0.30;99.90;;;;;;5073757;28;20172;-76
2024/01/07 10:49:23;;;;;;;5.00;2.65;;;0.50;99.90;;;;;;5072495;28;20045;-79
2024/01/07 10:52:06;;;;;;;5.38;2.70;;;0.40;99.90;;;;;;5072958;28;20052;-75
2024/01/07 10:54:34;;;;;;;4.72;2.78;;;0.60;99.90;;;;;;5073459;28;20121;-75
2024/01/07 10:57:18;;;;;;;5.78;3.03;;;1.00;99.90;;;;;;5072560;28;20044;-76
2024/01/07 10:59:45;;;;;;;5.35;3.03;;;0.70;99.90;;;;;;5069937;28;20132;-77
2024/01/07 11:02:13;;;;;;;5.10;3.00;;;1.10;99.90;;;;;;5055079;28;20491;-76
2024/01/07 11:05:00;;;;;;;4.57;3.00;;;0.40;99.90;;;;;;5073096;28;20135;-77
2024/01/07 11:07:44;;;;;;;3.95;3.00;;;0.90;99.90;;;;;;5073032;28;20047;-76
2024/01/07 11:10:17;;;;;;;5.28;3.22;;;0.80;99.90;;;;;;5073253;28;20044;-77
2024/01/07 11:12:43;;;;;;;6.40;3.35;;;0.70;99.90;;;;;;5071760;28;20052;-78
2024/01/07 11:15:09;;;;;;;6.22;3.25;;;1.80;99.90;;;;;;5072111;28;20507;-78
2024/01/07 11:17:38;;;;;;;6.72;3.60;;;0.70;99.90;;;;;;5072663;28;20129;-77
2024/01/07 11:20:20;;;;;;;6.60;3.60;;;0.60;99.90;;;;;;5071874;28;20491;-77
2024/01/07 11:22:46;;;;;;;7.93;4.00;;;0.50;99.90;;;;;;5071708;28;20126;-78
2024/01/07 11:25:32;;;;;;;6.20;3.25;;;1.00;99.90;;;;;;5071849;28;20455;-78
2024/01/07 11:28:00;;;;;;;6.32;3.63;;;0.50;99.90;;;;;;5071938;28;20395;-78
2024/01/07 11:30:26;;;;;;;6.88;3.85;;;1.30;99.90;;;;;;5088250;28;20051;-77
2024/01/07 11:32:59;;;;;;;8.32;3.97;;;0.50;99.90;;;;;;5071362;28;20135;-77
2024/01/07 11:35:58;;;;;;;6.63;3.83;;;0.70;99.90;;;;;;5072347;28;20120;-77
2024/01/07 11:38:24;;;;;;;6.43;4.05;;;0.70;99.90;;;;;;5071549;28;20487;-78
2024/01/07 11:40:50;;;;;;;7.10;4.03;;;0.80;99.90;;;;;;5070852;28;20032;-77
2024/01/07 11:43:16;;;;;;;8.57;3.80;;;1.30;99.90;;;;;;5072773;28;20071;-77
2024/01/07 11:45:42;;;;;;;9.65;4.30;;;0.60;99.90;;;;;;5071134;28;20454;-77
2024/01/07 11:48:09;;;;;;;9.15;4.10;;;0.80;99.90;;;;;;5071453;28;20102;-77
2024/01/07 11:50:35;;;;;;;7.82;3.92;;;0.80;99.90;;;;;;5071751;28;20062;-77
2024/01/07 11:53:01;;;;;;;9.57;4.80;;;0.80;99.90;;;;;;5072531;28;20053;-78
2024/01/07 11:55:29;;;;;;;8.13;4.30;;;0.80;99.90;;;;;;5071371;28;20044;-78
2024/01/07 11:58:00;;;;;;;6.38;4.00;;;1.60;99.90;;;;;;5070828;28;20080;-77
2024/01/07 12:00:26;;;;;;;7.63;4.47;;;0.60;99.90;;;;;;5070641;28;20061;-77
2024/01/07 12:02:51;;;;;;;9.50;4.38;;;0.70;99.90;;;;;;5070933;28;20059;-77
2024/01/07 12:05:17;;;;;;;6.72;4.28;;;0.60;99.90;;;;;;5071187;28;20125;-77
2024/01/07 12:07:43;;;;;;;8.73;4.97;;;0.90;99.90;;;;;;5054161;28;20040;-77
2024/01/07 12:10:12;;;;;;;6.75;3.92;;;0.50;99.90;;;;;;5070722;28;20037;-79
2024/01/07 12:12:41;;;;;;;6.25;3.88;;;0.80;99.90;;;;;;5054782;28;20045;-78
2024/01/07 12:15:08;;;;;;;7.90;4.15;;;0.80;99.90;;;;;;5070887;28;20377;-80
2024/01/07 12:17:34;;;;;;;7.75;4.45;;;0.80;99.90;;;;;;5071021;28;20048;-78
2024/01/07 12:20:04;;;;;;;7.85;4.30;;;1.10;99.90;;;;;;5072146;28;20131;-79
2024/01/07 12:22:30;;;;;;;10.05;4.22;;;0.80;99.90;;;;;;5072348;28;20044;-79
2024/01/07 12:25:06;;;;;;;8.25;4.30;;;0.60;99.90;;;;;;5070603;28;20486;-78
2024/01/07 12:27:34;;;;;;;10.52;4.40;;;0.90;99.90;;;;;;5069868;28;20045;-78
2024/01/07 12:29:59;;;;;;;9.80;4.65;;;0.80;99.90;;;;;;5071416;28;20045;-78
2024/01/07 12:32:32;;;;;;;10.15;4.30;;;0.80;99.90;;;;;;5070985;28;20369;-78
2024/01/07 12:35:01;;;;;;;5.55;3.80;;;0.80;99.90;;;;;;5071656;28;20044;-79
2024/01/07 12:37:27;;;;;;;8.35;4.70;;;0.60;99.90;;;;;;5071034;28;20063;-79
2024/01/07 12:39:54;;;;;;;7.28;4.13;;;0.80;99.90;;;;;;5070565;28;20131;-80
2024/01/07 12:42:21;;;;;;;7.88;4.25;;;1.60;99.90;;;;;;5070798;28;20051;-80
2024/01/07 12:44:51;;;;;;;9.18;4.10;;;2.00;99.90;;;;;;5071659;28;20143;-81
2024/01/07 12:47:17;;;;;;;7.47;4.20;;;1.40;99.90;;;;;;5071895;28;20048;-81
2024/01/07 12:49:42;;;;;;;7.90;4.47;;;1.20;99.90;;;;;;5070399;28;20051;-80